Time;durP1;ratioP1;P1;durP2;ratioP2;P2;SDS_P1;SDS_P2;PMS_P1;PMS_P2;Temp;Humidity;BMP_temperature;BMP_pressure;BME280_temperature;BME280_humidity;BME280_pressure;Samples;Min_cycle;Max_cycle;Signal;HPM_P1;HPM_P2
2023/06/20 00:09:18;;;;;;;7.53;4.18;;;;;;;22.85;100.00;101043.78;20982649;28;20087;-79
2023/06/20 00:19:43;;;;;;;8.80;4.38;;;;;;;22.82;100.00;101033.13;20988640;28;20090;-80
2023/06/20 00:30:07;;;;;;;8.77;4.90;;;;;;;22.63;100.00;101045.34;20981748;28;20050;-81
2023/06/20 00:40:32;;;;;;;7.78;4.50;;;;;;;22.50;100.00;101028.69;20984763;28;20045;-80
2023/06/20 00:50:55;;;;;;;7.35;4.47;;;;;;;22.43;100.00;101008.25;20985488;28;20117;-81
2023/06/20 01:01:21;;;;;;;6.25;4.25;;;;;;;22.33;100.00;101017.50;20995691;28;20094;-81
2023/06/20 01:11:53;;;;;;;4.75;4.07;;;;;;;22.32;100.00;101021.13;20987502;28;20053;-81
2023/06/20 01:22:35;;;;;;;9.05;5.00;;;;;;;22.21;100.00;101020.56;20974465;28;20079;-81
2023/06/20 01:33:03;;;;;;;6.72;4.40;;;;;;;22.08;100.00;101021.81;20998054;28;20052;-81
2023/06/20 01:43:31;;;;;;;7.15;4.18;;;;;;;22.05;100.00;101025.50;21002882;28;20062;-81
2023/06/20 01:53:55;;;;;;;7.87;4.13;;;;;;;21.96;100.00;101016.78;20975218;28;20457;-81
2023/06/20 02:04:20;;;;;;;12.00;5.57;;;;;;;21.84;100.00;101020.66;21030268;28;20090;-80
2023/06/20 02:14:43;;;;;;;7.38;4.28;;;;;;;21.77;100.00;101024.44;21029626;28;20049;-80
2023/06/20 02:25:15;;;;;;;7.80;4.05;;;;;;;21.67;100.00;101022.88;20993626;28;20061;-81
2023/06/20 02:35:40;;;;;;;6.35;4.18;;;;;;;21.62;100.00;101022.13;20959502;28;20059;-81
2023/06/20 02:46:15;;;;;;;6.20;4.35;;;;;;;21.53;100.00;101022.38;21006695;28;20067;-80
2023/06/20 02:56:40;;;;;;;6.30;4.32;;;;;;;21.47;100.00;101040.41;20950280;28;20081;-81
2023/06/20 03:07:07;;;;;;;8.55;4.10;;;;;;;21.47;100.00;101032.34;20937104;28;20090;-80
2023/06/20 03:17:35;;;;;;;8.07;4.13;;;;;;;21.59;100.00;101041.91;20981876;28;20040;-82
2023/06/20 03:27:59;;;;;;;;;;;;;;;21.69;100.00;101055.97;20961019;28;20080;-81
2023/06/20 03:38:23;;;;;;;8.48;3.90;;;;;;;22.03;100.00;101058.72;21020466;28;20369;-81
2023/06/20 03:48:48;;;;;;;9.02;5.25;;;;;;;22.35;100.00;101050.63;21008909;28;20076;-80
2023/06/20 03:59:11;;;;;;;8.52;4.55;;;;;;;22.82;100.00;101054.69;20980039;28;20131;-80
2023/06/20 04:09:35;;;;;;;5.68;4.05;;;;;;;23.21;100.00;101057.94;20968108;28;20088;-81
2023/06/20 04:19:59;;;;;;;3.38;2.58;;;;;;;23.78;100.00;101065.06;21036468;28;20044;-80
2023/06/20 04:30:24;;;;;;;5.25;2.53;;;;;;;24.38;100.00;101066.59;21004401;28;20413;-81
2023/06/20 04:40:46;;;;;;;5.50;2.78;;;;;;;24.96;100.00;101068.88;20970651;28;20044;-81
2023/06/20 04:51:12;;;;;;;7.25;2.65;;;;;;;25.54;100.00;101068.34;20994142;28;20137;-81
2023/06/20 05:01:35;;;;;;;6.65;2.47;;;;;;;26.08;100.00;101066.06;20980245;28;20679;-81
2023/06/20 05:12:01;;;;;;;7.13;2.53;;;;;;;26.56;100.00;101073.88;20966406;28;20125;-81
2023/06/20 05:22:23;;;;;;;4.93;2.45;;;;;;;27.16;100.00;101090.97;20952519;28;20048;-81
2023/06/20 05:32:47;;;;;;;4.63;1.95;;;;;;;27.49;93.62;101079.41;20980767;28;20045;-82
2023/06/20 05:43:10;;;;;;;4.50;2.30;;;;;;;27.94;89.31;101078.97;20960331;28;20486;-81
2023/06/20 05:53:34;;;;;;;3.33;2.10;;;;;;;28.66;84.90;101092.38;20897865;28;20056;-79
2023/06/20 06:03:57;;;;;;;3.75;2.10;;;;;;;29.28;79.00;101078.91;21008492;28;20394;-79
2023/06/20 06:14:21;;;;;;;2.97;2.17;;;;;;;30.01;72.19;101092.84;21042873;28;20048;-80
2023/06/20 06:24:44;;;;;;;5.43;2.67;;;;;;;31.17;64.25;101097.44;20977544;28;20056;-77
2023/06/20 06:35:10;;;;;;;6.82;2.50;;;;;;;31.74;55.77;101103.66;21010468;28;20524;-78
2023/06/20 06:45:33;;;;;;;4.30;2.25;;;;;;;31.93;51.74;101100.56;20999378;28;20059;-81
2023/06/20 06:55:57;;;;;;;5.55;2.50;;;;;;;32.36;49.16;101110.28;20982862;28;20052;-80
2023/06/20 07:06:21;;;;;;;6.65;2.60;;;;;;;32.31;48.24;101100.66;21029315;28;20105;-80
2023/06/20 07:16:46;;;;;;;4.40;2.60;;;;;;;32.61;48.24;101114.94;21069040;28;20054;-81
2023/06/20 07:27:09;;;;;;;4.45;2.55;;;;;;;33.03;47.59;101110.13;21058696;28;20075;-80
2023/06/20 07:37:34;;;;;;;4.18;2.20;;;;;;;33.26;46.57;101120.31;20971098;28;20044;-80
2023/06/20 07:47:56;;;;;;;4.50;2.40;;;;;;;33.33;46.13;101116.13;21051097;28;20163;-81
2023/06/20 07:58:14;;;;;;;4.10;2.33;;;;;;;33.30;44.55;101121.81;21067978;28;20068;-81
2023/06/20 08:08:39;;;;;;;4.53;2.20;;;;;;;33.39;44.14;101117.53;21072487;28;20572;-81
2023/06/20 08:18:46;;;;;;;3.65;2.28;;;;;;;33.55;44.53;101120.88;21008206;28;20044;-81
2023/06/20 08:29:11;;;;;;;5.22;2.70;;;;;;;33.67;42.87;101122.72;20996864;28;20052;-82
2023/06/20 08:39:36;;;;;;;6.93;2.37;;;;;;;33.58;42.20;101132.50;20978914;28;20052;-81
2023/06/20 08:49:59;;;;;;;4.57;2.05;;;;;;;34.09;41.87;101142.38;21047955;28;20144;-81
2023/06/20 09:00:23;;;;;;;3.53;2.08;;;;;;;34.18;39.82;101130.72;21010338;28;20048;-81
2023/06/20 09:10:46;;;;;;;3.23;2.20;;;;;;;34.26;38.88;101123.69;21039127;28;20070;-83
2023/06/20 09:21:16;;;;;;;4.70;2.10;;;;;;;34.67;38.48;101139.63;20993303;28;20409;-83
2023/06/20 09:31:43;;;;;;;5.43;2.72;;;;;;;34.48;38.23;101132.97;20941347;28;20048;-80
2023/06/20 09:42:13;;;;;;;4.65;2.53;;;;;;;35.19;37.77;101127.22;20965065;28;20048;-81
2023/06/20 09:52:40;;;;;;;7.97;2.90;;;;;;;35.15;37.36;101109.25;20977525;28;20048;-82
2023/06/20 10:03:09;;;;;;;5.10;2.17;;;;;;;35.45;37.10;101116.84;21009050;28;20131;-82
2023/06/20 10:13:33;;;;;;;4.65;2.25;;;;;;;35.40;36.72;101102.63;20987780;28;20056;-82
2023/06/20 10:23:58;;;;;;;5.97;2.47;;;;;;;35.40;36.56;101110.88;20986628;28;20106;-82
2023/06/20 10:34:29;;;;;;;4.32;2.50;;;;;;;35.02;37.09;101112.13;20934903;28;20186;-82
2023/06/20 10:45:18;;;;;;;7.70;2.53;;;;;;;35.39;36.51;101107.25;20935581;28;20103;-80
2023/06/20 10:55:41;;;;;;;3.50;3.00;;;;;;;35.24;36.76;101110.41;20937488;28;20053;-81
2023/06/20 11:06:05;;;;;;;6.20;2.83;;;;;;;35.83;36.88;101110.94;20960848;28;20565;-79
2023/06/20 11:16:29;;;;;;;4.70;2.90;;;;;;;35.67;36.49;101110.44;20963219;28;20041;-81
2023/06/20 11:26:53;;;;;;;6.27;2.80;;;;;;;35.57;37.28;101104.88;20964865;28;20060;-81
2023/06/20 11:37:16;;;;;;;5.68;2.40;;;;;;;35.20;37.44;101098.75;20965577;28;20053;-79
2023/06/20 11:47:40;;;;;;;5.00;3.30;;;;;;;34.78;37.50;101083.94;20988096;28;20060;-80
2023/06/20 11:58:03;;;;;;;5.47;2.97;;;;;;;34.40;37.81;101082.31;20953717;28;20052;-79
2023/06/20 12:08:33;;;;;;;5.72;3.45;;;;;;;33.94;38.28;101073.16;20981633;28;20144;-78
2023/06/20 12:18:59;;;;;;;4.30;3.15;;;;;;;34.26;38.15;101060.63;20965562;28;20500;-78
2023/06/20 12:29:23;;;;;;;5.60;3.10;;;;;;;34.57;36.94;101061.81;20978050;28;20125;-79
2023/06/20 12:39:46;;;;;;;6.88;3.50;;;;;;;34.87;36.44;101052.09;20927791;28;20048;-78
2023/06/20 12:50:11;;;;;;;5.75;3.42;;;;;;;35.15;36.59;101051.59;20962229;28;20048;-79
2023/06/20 13:00:37;;;;;;;4.35;3.03;;;;;;;35.39;36.17;101035.84;20982447;28;20485;-78
2023/06/20 13:11:02;;;;;;;6.18;2.72;;;;;;;35.21;35.70;101029.16;20970232;28;20075;-78
2023/06/20 13:21:24;;;;;;;6.20;3.22;;;;;;;35.16;35.42;101021.28;20979236;28;20161;-78
2023/06/20 13:31:49;;;;;;;4.20;3.05;;;;;;;34.89;34.96;101029.03;20974914;28;20301;-79
2023/06/20 13:42:12;;;;;;;4.57;3.27;;;;;;;34.59;35.02;101026.88;21038749;28;20044;-79
2023/06/20 13:52:37;;;;;;;7.35;3.90;;;;;;;34.41;34.83;101017.38;21010109;28;20668;-78
2023/06/20 14:03:00;;;;;;;8.97;4.30;;;;;;;34.25;34.80;101000.41;21005884;28;20072;-79
2023/06/20 14:13:24;;;;;;;7.15;3.95;;;;;;;34.31;34.70;100992.56;20961359;28;20044;-78
2023/06/20 14:23:47;;;;;;;5.07;3.30;;;;;;;34.36;34.65;100989.47;20970677;28;20052;-80
2023/06/20 14:34:11;;;;;;;3.85;2.53;;;;;;;34.30;34.95;100987.22;20971849;28;20501;-79
2023/06/20 14:44:34;;;;;;;5.27;2.90;;;;;;;34.04;35.25;100986.50;20977045;28;20045;-80
2023/06/20 14:55:01;;;;;;;4.53;2.90;;;;;;;33.82;35.72;100983.69;20945115;28;20669;-79
2023/06/20 15:05:24;;;;;;;6.35;3.03;;;;;;;33.59;36.04;100978.13;20975246;28;20048;-81
2023/06/20 15:15:48;;;;;;;4.90;3.30;;;;;;;32.97;36.99;100987.44;20980259;28;20049;-80
2023/06/20 15:26:11;;;;;;;6.20;3.20;;;;;;;32.25;37.71;100992.66;20968314;28;20053;-80
2023/06/20 15:36:37;;;;;;;5.18;2.90;;;;;;;31.57;38.92;101011.91;20926694;28;20057;-80
2023/06/20 15:47:01;;;;;;;5.68;3.40;;;;;;;30.76;40.44;101000.03;20960798;28;20090;-80
2023/06/20 15:57:26;;;;;;;6.13;3.63;;;;;;;30.09;42.73;101004.25;20969010;28;20117;-81
2023/06/20 16:07:49;;;;;;;4.68;3.55;;;;;;;29.56;45.68;101010.19;20933986;28;20049;-79
2023/06/20 16:18:13;;;;;;;5.82;3.85;;;;;;;29.37;48.89;101014.09;20914472;28;20377;-79
2023/06/20 16:28:36;;;;;;;5.47;4.07;;;;;;;29.07;51.47;101016.72;20938377;28;20405;-81
2023/06/20 16:39:00;;;;;;;6.35;3.85;;;;;;;28.85;53.82;101020.63;20948149;28;20167;-80
2023/06/20 16:49:23;;;;;;;7.13;3.85;;;;;;;28.59;57.75;101020.28;20936480;28;20044;-79
2023/06/20 16:59:50;;;;;;;7.90;4.32;;;;;;;28.26;62.88;101025.72;20982435;28;20105;-79
2023/06/20 17:10:13;;;;;;;7.83;4.13;;;;;;;27.94;67.82;101027.38;20896867;28;20044;-79
2023/06/20 17:20:37;;;;;;;6.90;4.30;;;;;;;27.53;76.88;101027.66;20930903;28;20052;-78
2023/06/20 17:31:00;;;;;;;5.97;4.13;;;;;;;27.36;79.55;101027.63;20954385;28;20110;-78
2023/06/20 17:41:24;;;;;;;7.68;4.65;;;;;;;27.07;85.51;101039.88;20931362;28;20418;-78
2023/06/20 17:51:47;;;;;;;6.82;4.95;;;;;;;26.75;91.70;101035.06;20945226;28;20068;-78
2023/06/20 18:02:13;;;;;;;7.32;4.88;;;;;;;26.56;93.60;101035.94;20949394;28;20084;-78
2023/06/20 18:12:36;;;;;;;9.15;4.85;;;;;;;26.30;97.30;101035.38;20934033;28;20099;-78
2023/06/20 18:23:00;;;;;;;8.98;6.18;;;;;;;26.04;100.00;101048.22;20959361;28;20526;-80
2023/06/20 18:33:23;;;;;;;10.63;6.10;;;;;;;26.00;100.00;101046.56;21013501;28;20055;-80
2023/06/20 18:43:48;;;;;;;11.63;5.38;;;;;;;25.91;100.00;101052.38;20978683;28;20044;-78
2023/06/20 18:54:11;;;;;;;6.70;4.75;;;;;;;25.70;100.00;101056.00;20933883;28;20048;-81
2023/06/20 19:04:35;;;;;;;6.40;4.80;;;;;;;25.60;100.00;101065.47;20962324;28;20063;-79
2023/06/20 19:14:58;;;;;;;9.15;5.13;;;;;;;25.49;99.73;101068.56;21002029;28;20041;-79
2023/06/20 19:25:22;;;;;;;8.27;4.75;;;;;;;25.42;98.57;101067.94;21004666;28;20105;-80
2023/06/20 19:35:45;;;;;;;6.25;4.53;;;;;;;25.34;96.91;101061.94;20982451;28;20056;-81
2023/06/20 19:46:09;;;;;;;7.97;4.55;;;;;;;25.26;96.69;101056.00;20987685;28;20492;-80
2023/06/20 19:56:32;;;;;;;7.72;5.10;;;;;;;25.25;95.44;101045.25;20990006;28;20041;-81
2023/06/20 20:06:56;;;;;;;7.75;5.20;;;;;;;25.17;95.29;101045.53;20971539;28;20184;-81
2023/06/20 20:17:19;;;;;;;9.57;5.03;;;;;;;25.08;95.74;101043.19;20943711;28;20392;-80
2023/06/20 20:27:43;;;;;;;7.60;5.15;;;;;;;24.93;97.31;101035.72;21030994;28;20102;-80
2023/06/20 20:38:07;;;;;;;6.93;4.82;;;;;;;24.78;99.32;101031.75;21000253;28;20036;-81
2023/06/20 20:48:32;;;;;;;8.40;4.65;;;;;;;24.74;99.62;101024.72;20983443;28;20044;-82
2023/06/20 20:58:55;;;;;;;9.77;5.22;;;;;;;24.76;98.97;101016.53;21000299;28;20105;-81
2023/06/20 21:09:19;;;;;;;7.15;4.30;;;;;;;24.63;100.00;101005.31;21010841;28;20041;-81
2023/06/20 21:19:43;;;;;;;8.35;4.70;;;;;;;24.55;98.89;101008.31;20968150;28;20055;-81
2023/06/20 21:30:09;;;;;;;7.60;4.38;;;;;;;24.48;98.83;101001.38;20970522;28;20318;-82
2023/06/20 21:40:32;;;;;;;5.78;4.43;;;;;;;24.52;97.87;101008.44;21006995;28;20148;-80
2023/06/20 21:50:56;;;;;;;9.00;5.00;;;;;;;24.42;100.00;101009.72;21050663;28;20130;-80
2023/06/20 22:01:19;;;;;;;6.53;4.88;;;;;;;24.04;100.00;101010.22;20975097;28;20052;-79
2023/06/20 22:11:30;;;;;;;7.85;5.35;;;;;;;23.92;100.00;101016.06;20988514;28;20056;-80
2023/06/20 22:21:53;;;;;;;7.50;5.20;;;;;;;23.62;100.00;101018.91;20987038;28;20514;-81
2023/06/20 22:32:17;;;;;;;10.70;5.78;;;;;;;23.66;100.00;101023.25;20964058;28;20055;-80
2023/06/20 22:42:40;;;;;;;7.32;5.95;;;;;;;23.53;100.00;101034.50;20984739;28;20151;-81
2023/06/20 22:53:05;;;;;;;8.57;5.60;;;;;;;23.40;100.00;101021.38;20980728;28;20060;-81
2023/06/20 23:03:27;;;;;;;8.02;6.10;;;;;;;23.20;100.00;101006.81;20983463;28;20135;-81
2023/06/20 23:13:51;;;;;;;8.05;6.28;;;;;;;23.18;100.00;101012.22;20992896;28;20451;-81
2023/06/20 23:24:15;;;;;;;7.53;5.47;;;;;;;23.16;100.00;101010.53;20907277;28;1897595;-81
2023/06/20 23:34:40;;;;;;;8.35;6.22;;;;;;;23.21;100.00;100998.69;20986317;28;20054;-81
2023/06/20 23:45:04;;;;;;;10.20;5.28;;;;;;;23.03;100.00;101010.94;21019070;28;20445;-81
2023/06/20 23:55:28;;;;;;;7.80;4.68;;;;;;;23.12;100.00;101009.75;21045379;28;20059;-80
